createdAt,value
2017-06-29T00:00:23.202Z,0
2017-06-29T00:01:38.672Z,0
2017-06-29T00:03:07.924Z,0
2017-06-29T00:04:23.354Z,0
2017-06-29T00:05:38.775Z,0
2017-06-29T00:06:54.192Z,0
2017-06-29T00:08:08.729Z,0
2017-06-29T00:09:24.115Z,0
2017-06-29T00:10:39.598Z,0
2017-06-29T00:11:55.042Z,0
2017-06-29T00:13:10.727Z,0
2017-06-29T00:14:26.209Z,0
2017-06-29T00:15:41.636Z,0
2017-06-29T00:16:57.083Z,0
2017-06-29T00:18:12.799Z,0
2017-06-29T00:19:28.291Z,0
2017-06-29T00:20:43.807Z,0
2017-06-29T00:21:59.347Z,0
2017-06-29T00:23:15.019Z,0
2017-06-29T00:24:29.354Z,0
2017-06-29T00:25:44.949Z,0
2017-06-29T00:27:00.377Z,0
2017-06-29T00:28:16.127Z,0
2017-06-29T00:29:31.496Z,0
2017-06-29T00:30:46.914Z,0
2017-06-29T00:32:02.373Z,0
2017-06-29T00:33:18.072Z,0
2017-06-29T00:34:33.539Z,0
2017-06-29T00:35:49.044Z,0
2017-06-29T00:37:04.418Z,0
2017-06-29T00:38:20.190Z,0
2017-06-29T00:39:35.839Z,0
2017-06-29T00:40:51.312Z,0
2017-06-29T00:42:06.754Z,0
2017-06-29T00:43:22.439Z,0
2017-06-29T00:44:37.890Z,0
2017-06-29T00:45:53.347Z,0
2017-06-29T00:47:08.807Z,0
2017-06-29T00:48:24.550Z,0
2017-06-29T00:49:40.007Z,0
2017-06-29T00:50:55.439Z,0
2017-06-29T00:52:10.858Z,0
2017-06-29T00:53:26.544Z,0
2017-06-29T00:54:41.949Z,0
2017-06-29T00:55:57.364Z,0
2017-06-29T00:57:12.805Z,0
2017-06-29T00:58:28.688Z,0
2017-06-29T00:59:44.243Z,0
2017-06-29T01:00:59.691Z,0
2017-06-29T01:02:15.271Z,0
2017-06-29T01:03:30.940Z,0
2017-06-29T01:04:45.991Z,0
2017-06-29T01:06:01.421Z,0
2017-06-29T01:07:17.238Z,0
2017-06-29T01:08:32.919Z,0
2017-06-29T01:09:47.043Z,0
2017-06-29T01:11:02.498Z,0
2017-06-29T01:12:17.978Z,0
2017-06-29T01:13:33.636Z,0
2017-06-29T01:14:47.627Z,0
2017-06-29T01:16:03.095Z,0
2017-06-29T01:17:18.544Z,0
2017-06-29T01:18:34.255Z,0
2017-06-29T01:19:48.201Z,0
2017-06-29T01:21:03.651Z,0
2017-06-29T01:22:19.057Z,0
2017-06-29T01:23:34.715Z,0
2017-06-29T01:24:50.386Z,0
2017-06-29T01:26:05.845Z,0
2017-06-29T01:27:21.279Z,0
2017-06-29T01:28:36.933Z,0
2017-06-29T01:29:51.057Z,0
2017-06-29T01:31:06.139Z,0
2017-06-29T01:32:21.584Z,0
2017-06-29T01:33:37.242Z,0
2017-06-29T01:34:52.712Z,0
2017-06-29T01:36:08.262Z,0
2017-06-29T01:37:22.355Z,0
2017-06-29T01:38:38.062Z,0
2017-06-29T01:39:53.580Z,0
2017-06-29T01:41:08.966Z,0
2017-06-29T01:42:24.414Z,0
2017-06-29T01:43:40.081Z,0
2017-06-29T01:44:55.547Z,0
2017-06-29T01:46:11.072Z,0
2017-06-29T01:47:26.467Z,0
2017-06-29T01:48:42.144Z,0
2017-06-29T01:49:57.608Z,0
2017-06-29T01:51:13.045Z,0
2017-06-29T01:52:28.512Z,0
2017-06-29T01:53:44.206Z,0
2017-06-29T01:54:59.704Z,0
2017-06-29T01:56:15.138Z,0
2017-06-29T01:57:29.297Z,0
2017-06-29T01:58:45.228Z,0
2017-06-29T02:00:00.756Z,0
2017-06-29T02:01:16.191Z,0
2017-06-29T02:02:31.820Z,0
2017-06-29T02:03:47.517Z,0
2017-06-29T02:05:03.121Z,0
2017-06-29T02:06:18.503Z,0
2017-06-29T02:07:34.085Z,0
2017-06-29T02:08:50.009Z,0
2017-06-29T02:10:05.423Z,0
2017-06-29T02:11:20.889Z,0
2017-06-29T02:12:34.992Z,0
2017-06-29T02:13:47.772Z,0
2017-06-29T02:15:03.197Z,4
2017-06-29T02:16:18.590Z,4
2017-06-29T02:17:34.000Z,4
2017-06-29T02:18:49.717Z,0
2017-06-29T02:20:05.174Z,4
2017-06-29T02:21:20.573Z,4
2017-06-29T02:22:34.736Z,8
2017-06-29T02:23:50.414Z,4
2017-06-29T02:25:05.858Z,8
2017-06-29T02:26:21.302Z,8
2017-06-29T02:27:36.815Z,8
2017-06-29T02:28:52.521Z,12
2017-06-29T02:30:08.030Z,12
2017-06-29T02:31:23.460Z,12
2017-06-29T02:32:38.859Z,16
2017-06-29T02:33:53.105Z,20
2017-06-29T02:35:08.727Z,24
2017-06-29T02:36:24.172Z,28
2017-06-29T02:37:39.620Z,28
2017-06-29T02:38:55.406Z,32
2017-06-29T02:40:10.843Z,40
2017-06-29T02:41:26.276Z,44
2017-06-29T02:42:41.706Z,48
2017-06-29T02:43:56.075Z,60
2017-06-29T02:45:10.339Z,64
2017-06-29T02:46:25.786Z,72
2017-06-29T02:47:41.188Z,80
2017-06-29T02:48:56.919Z,84
2017-06-29T02:50:10.923Z,96
2017-06-29T02:51:26.385Z,104
2017-06-29T02:52:42.029Z,112
2017-06-29T02:53:56.425Z,128
2017-06-29T02:55:10.484Z,136
2017-06-29T02:56:25.946Z,148
2017-06-29T02:57:41.489Z,164
2017-06-29T02:58:57.123Z,176
2017-06-29T03:00:12.594Z,188
2017-06-29T03:01:26.889Z,200
2017-06-29T03:02:42.307Z,216
2017-06-29T03:03:57.988Z,232
2017-06-29T03:05:11.776Z,256
2017-06-29T03:07:54.933Z,300
2017-06-29T03:09:10.672Z,324
2017-06-29T03:10:23.358Z,348
2017-06-29T03:11:38.907Z,372
2017-06-29T03:12:54.363Z,400
2017-06-29T03:14:07.426Z,432
2017-06-29T03:15:22.798Z,472
2017-06-29T03:16:38.358Z,504
2017-06-29T03:17:53.814Z,532
2017-06-29T03:19:09.283Z,552
2017-06-29T03:20:24.719Z,580
2017-06-29T03:21:40.120Z,604
2017-06-29T03:22:55.566Z,640
2017-06-29T03:24:11.256Z,684
2017-06-29T03:25:26.694Z,720
2017-06-29T03:26:42.148Z,764
2017-06-29T03:27:57.553Z,812
2017-06-29T03:29:11.939Z,856
2017-06-29T03:30:27.378Z,904
2017-06-29T03:31:42.819Z,944
2017-06-29T03:32:58.250Z,984
2017-06-29T03:34:13.962Z,1028
2017-06-29T03:35:29.509Z,1072
2017-06-29T03:36:44.959Z,1116
2017-06-29T03:37:59.246Z,1164
2017-06-29T03:39:14.954Z,1208
2017-06-29T03:40:30.415Z,1264
2017-06-29T03:41:46.028Z,1316
2017-06-29T03:43:00.124Z,1364
2017-06-29T03:44:15.403Z,1404
2017-06-29T03:45:30.835Z,1440
2017-06-29T03:46:46.263Z,1480
2017-06-29T03:48:01.646Z,1528
2017-06-29T03:49:16.048Z,1584
2017-06-29T03:50:31.494Z,1600
2017-06-29T03:51:46.931Z,1616
2017-06-29T03:53:01.050Z,1668
2017-06-29T03:54:16.770Z,1712
2017-06-29T03:55:32.507Z,1740
2017-06-29T03:56:48.037Z,1776
2017-06-29T03:58:03.479Z,1812
2017-06-29T03:59:19.164Z,1856
2017-06-29T04:00:33.314Z,1904
2017-06-29T04:01:48.750Z,1964
2017-06-29T04:03:04.194Z,2032
2017-06-29T04:04:19.933Z,2120
2017-06-29T04:05:35.417Z,2192
2017-06-29T04:06:50.770Z,2264
2017-06-29T04:08:06.336Z,2324
2017-06-29T04:09:22.073Z,2380
2017-06-29T04:10:37.724Z,2440
2017-06-29T04:11:53.131Z,2504
2017-06-29T04:13:08.795Z,2560
2017-06-29T04:14:24.493Z,2632
2017-06-29T04:15:39.960Z,2704
2017-06-29T04:16:55.043Z,2752
2017-06-29T04:18:10.496Z,2824
2017-06-29T04:19:26.231Z,2884
2017-06-29T04:20:41.694Z,2956
2017-06-29T04:21:57.126Z,3024
2017-06-29T04:23:12.166Z,3096
2017-06-29T04:24:27.841Z,3164
2017-06-29T04:25:41.962Z,3228
2017-06-29T04:26:57.424Z,3308
2017-06-29T04:28:12.923Z,3364
2017-06-29T04:29:28.635Z,3444
2017-06-29T04:30:42.710Z,3524
2017-06-29T04:31:58.231Z,3656
2017-06-29T04:33:12.363Z,3812
2017-06-29T04:34:28.005Z,3964
2017-06-29T04:35:43.595Z,4088
2017-06-29T04:36:59.047Z,4224
2017-06-29T04:38:14.710Z,4360
2017-06-29T04:39:30.259Z,4552
2017-06-29T04:40:45.309Z,4672
2017-06-29T04:42:01.003Z,4816
2017-06-29T04:43:16.408Z,5016
2017-06-29T04:44:32.163Z,5184
2017-06-29T04:45:47.684Z,5408
2017-06-29T04:47:03.118Z,5552
2017-06-29T04:48:18.502Z,5652
2017-06-29T04:49:34.199Z,5728
2017-06-29T04:50:49.615Z,5700
2017-06-29T04:52:05.037Z,5748
2017-06-29T04:53:19.050Z,5720
2017-06-29T04:54:34.949Z,5796
2017-06-29T04:56:21.197Z,5852
2017-06-29T04:57:35.338Z,5960
2017-06-29T04:58:50.765Z,6108
2017-06-29T05:00:18.801Z,6208
2017-06-29T05:01:34.216Z,6172
2017-06-29T05:02:49.659Z,6664
2017-06-29T05:04:05.225Z,6576
2017-06-29T05:05:20.888Z,6608
2017-06-29T05:06:36.478Z,6580
2017-06-29T05:07:51.884Z,6784
2017-06-29T05:09:07.313Z,6708
2017-06-29T05:10:21.693Z,6844
2017-06-29T05:11:37.094Z,7000
2017-06-29T05:12:52.522Z,6992
2017-06-29T05:14:07.615Z,7004
2017-06-29T05:15:23.308Z,7148
2017-06-29T05:16:37.423Z,7524
2017-06-29T05:17:53.028Z,7784
2017-06-29T05:19:08.511Z,8124
2017-06-29T05:20:24.157Z,8288
2017-06-29T05:21:39.211Z,8268
2017-06-29T05:22:54.922Z,8128
2017-06-29T05:24:10.362Z,7468
2017-06-29T05:25:24.615Z,7616
2017-06-29T05:26:40.066Z,7288
2017-06-29T05:27:54.186Z,7228
2017-06-29T05:29:09.580Z,7312
2017-06-29T05:30:25.481Z,6444
2017-06-29T05:31:40.915Z,6644
2017-06-29T05:32:56.463Z,6944
2017-06-29T05:34:11.876Z,7296
2017-06-29T05:35:26.311Z,7228
2017-06-29T05:36:41.759Z,7656
2017-06-29T05:37:57.185Z,7752
2017-06-29T05:39:12.805Z,8032
2017-06-29T05:40:28.478Z,8060
2017-06-29T05:41:43.891Z,8268
2017-06-29T05:42:59.446Z,8308
2017-06-29T05:44:13.556Z,7880
2017-06-29T05:45:29.256Z,8664
2017-06-29T05:46:43.395Z,8824
2017-06-29T05:47:58.805Z,8892
2017-06-29T05:49:12.914Z,9164
2017-06-29T05:50:28.599Z,9484
2017-06-29T05:51:44.076Z,9436
2017-06-29T05:52:59.519Z,8664
2017-06-29T05:54:14.967Z,8600
2017-06-29T05:55:30.657Z,8904
2017-06-29T05:56:46.134Z,9116
2017-06-29T05:58:00.266Z,8656
2017-06-29T05:59:15.690Z,9244
2017-06-29T06:00:31.381Z,9460
2017-06-29T06:01:45.547Z,9468
2017-06-29T06:03:00.981Z,9664
2017-06-29T06:04:16.064Z,9252
2017-06-29T06:05:30.417Z,9216
2017-06-29T06:06:45.821Z,9352
2017-06-29T06:07:58.541Z,9772
2017-06-29T06:09:13.996Z,9876
2017-06-29T06:10:29.906Z,9840
2017-06-29T06:11:45.391Z,11148
2017-06-29T06:13:00.859Z,11328
2017-06-29T06:14:16.332Z,11728
2017-06-29T06:15:32.309Z,10788
2017-06-29T06:16:47.787Z,10552
2017-06-29T06:18:03.236Z,9624
2017-06-29T06:19:18.692Z,9568
2017-06-29T06:20:32.950Z,10900
2017-06-29T06:21:48.403Z,10596
2017-06-29T06:23:03.882Z,9144
2017-06-29T06:24:19.343Z,9776
2017-06-29T06:25:34.987Z,10564
2017-06-29T06:26:50.387Z,10708
2017-06-29T06:28:05.491Z,11712
2017-06-29T06:29:20.969Z,10708
2017-06-29T06:30:36.937Z,8808
2017-06-29T06:31:52.382Z,10144
2017-06-29T06:33:07.853Z,8784
2017-06-29T06:34:21.805Z,8192
2017-06-29T06:35:37.579Z,7192
2017-06-29T06:37:23.892Z,8108
2017-06-29T06:38:39.420Z,8772
2017-06-29T06:39:55.079Z,7976
2017-06-29T06:41:24.226Z,9604
2017-06-29T06:42:39.779Z,9916
2017-06-29T06:43:55.141Z,12712
2017-06-29T06:45:10.704Z,12604
2017-06-29T06:46:26.437Z,11788
2017-06-29T06:47:40.622Z,11488
2017-06-29T06:48:56.132Z,10440
2017-06-29T06:50:11.180Z,11360
2017-06-29T06:51:25.562Z,13268
2017-06-29T06:52:39.715Z,11896
2017-06-29T06:53:55.285Z,11820
2017-06-29T06:55:09.466Z,14200
2017-06-29T06:56:23.890Z,13044
2017-06-29T06:57:39.345Z,13004
2017-06-29T06:58:55.026Z,13512
2017-06-29T07:00:09.040Z,15048
2017-06-29T07:01:24.732Z,11752
2017-06-29T07:02:40.165Z,11752
2017-06-29T07:03:54.310Z,12652
2017-06-29T07:05:09.743Z,11012
2017-06-29T07:06:25.484Z,14272
2017-06-29T07:07:40.905Z,11392
2017-06-29T07:08:56.320Z,14336
2017-06-29T07:10:10.463Z,13848
2017-06-29T07:11:26.182Z,14676
2017-06-29T07:12:41.658Z,15808
2017-06-29T07:13:55.739Z,14372
2017-06-29T07:15:09.867Z,12276
2017-06-29T07:16:25.288Z,11728
2017-06-29T07:17:40.953Z,13048
2017-06-29T07:18:56.588Z,14064
2017-06-29T07:20:12.093Z,15084
2017-06-29T07:21:27.561Z,13980
2017-06-29T07:22:43.279Z,16576
2017-06-29T07:23:58.802Z,15512
2017-06-29T07:25:14.225Z,15196
2017-06-29T07:26:28.406Z,14760
2017-06-29T07:27:44.087Z,15332
2017-06-29T07:28:59.536Z,14220
2017-06-29T07:30:14.630Z,15840
2017-06-29T07:31:28.742Z,14552
2017-06-29T07:32:43.179Z,16992
2017-06-29T07:33:58.648Z,16416
2017-06-29T07:35:14.021Z,15936
2017-06-29T07:36:29.069Z,16768
2017-06-29T07:37:44.541Z,16960
2017-06-29T07:38:58.879Z,17216
2017-06-29T07:40:14.364Z,16992
2017-06-29T07:41:29.846Z,18400
2017-06-29T07:42:44.212Z,16864
2017-06-29T07:43:59.652Z,16960
2017-06-29T07:45:15.091Z,16416
2017-06-29T07:46:30.539Z,17984
2017-06-29T07:47:46.236Z,17824
2017-06-29T07:49:01.941Z,16352
2017-06-29T07:50:17.380Z,16608
2017-06-29T07:51:33.009Z,17248
2017-06-29T07:52:48.692Z,17824
2017-06-29T07:54:02.840Z,17696
2017-06-29T07:55:18.307Z,16384
2017-06-29T07:56:33.703Z,18208
2017-06-29T07:57:49.536Z,19680
2017-06-29T07:59:05.212Z,18304
2017-06-29T08:00:20.657Z,17056
2017-06-29T08:01:36.292Z,18112
2017-06-29T08:02:51.920Z,17568
2017-06-29T08:04:07.394Z,20032
2017-06-29T08:05:21.387Z,18752
2017-06-29T08:06:37.026Z,20960
2017-06-29T08:07:52.758Z,20544
2017-06-29T08:09:08.357Z,19776
2017-06-29T08:10:23.825Z,20480
2017-06-29T08:11:39.468Z,19936
2017-06-29T08:12:55.205Z,20320
2017-06-29T08:14:10.644Z,20000
2017-06-29T08:15:26.277Z,19872
2017-06-29T08:16:41.944Z,19744
2017-06-29T08:18:11.238Z,20160
2017-06-29T08:19:26.341Z,19712
2017-06-29T08:20:41.990Z,20128
2017-06-29T08:21:57.454Z,21056
2017-06-29T08:23:11.476Z,22784
2017-06-29T08:24:39.442Z,23360
2017-06-29T08:25:54.523Z,22944
2017-06-29T08:27:10.002Z,21536
2017-06-29T08:28:25.719Z,23104
2017-06-29T08:29:41.163Z,23072
2017-06-29T08:30:56.625Z,23968
2017-06-29T08:32:10.787Z,23552
2017-06-29T08:33:26.493Z,22528
2017-06-29T08:34:41.924Z,22048
2017-06-29T08:35:57.371Z,23264
2017-06-29T08:37:12.799Z,21312
2017-06-29T08:38:28.470Z,21472
2017-06-29T08:39:43.928Z,22272
2017-06-29T08:40:59.381Z,21984
2017-06-29T08:42:14.996Z,22464
2017-06-29T08:43:29.407Z,22624
2017-06-29T08:44:44.954Z,23200
2017-06-29T08:46:00.411Z,24192
2017-06-29T08:47:15.815Z,26816
2017-06-29T08:48:31.591Z,26496
2017-06-29T08:49:44.412Z,27008
2017-06-29T08:50:59.858Z,25632
2017-06-29T08:52:15.355Z,25312
2017-06-29T08:53:31.066Z,23968
2017-06-29T08:54:45.204Z,23712
2017-06-29T08:56:00.692Z,23424
2017-06-29T08:57:16.300Z,22848
2017-06-29T08:58:32.012Z,22592
2017-06-29T08:59:47.393Z,22464
2017-06-29T09:01:02.858Z,21600
2017-06-29T09:02:18.330Z,22944
2017-06-29T09:03:34.230Z,22656
2017-06-29T09:04:49.659Z,25856
2017-06-29T09:06:05.115Z,24352
2017-06-29T09:07:20.592Z,19200
2017-06-29T09:08:36.544Z,20000
2017-06-29T09:09:52.085Z,16864
2017-06-29T09:11:07.182Z,18016
2017-06-29T09:12:21.333Z,16448
2017-06-29T09:13:37.057Z,17568
2017-06-29T09:16:21.549Z,19936
2017-06-29T09:17:37.247Z,29472
2017-06-29T09:18:53.181Z,31648
2017-06-29T09:20:08.624Z,32320
2017-06-29T09:21:24.019Z,34560
2017-06-29T09:22:38.174Z,37664
2017-06-29T09:23:53.886Z,39232
2017-06-29T09:25:09.354Z,35392
2017-06-29T09:26:24.844Z,34176
2017-06-29T09:27:40.254Z,35392
2017-06-29T09:28:56.176Z,36032
2017-06-29T09:30:11.226Z,30304
2017-06-29T09:31:26.704Z,22624
2017-06-29T09:32:42.151Z,32992
2017-06-29T09:33:57.856Z,31040
2017-06-29T09:35:13.259Z,30016
2017-06-29T09:36:28.705Z,27584
2017-06-29T09:37:42.891Z,26208
2017-06-29T09:38:58.528Z,24192
2017-06-29T09:40:14.025Z,22208
2017-06-29T09:41:29.433Z,24704
2017-06-29T09:42:43.592Z,23296
2017-06-29T09:43:59.273Z,21152
2017-06-29T09:45:14.799Z,19488
2017-06-29T09:46:30.273Z,18912
2017-06-29T09:47:45.744Z,19552
2017-06-29T09:49:01.068Z,19904
2017-06-29T09:50:16.538Z,21056
2017-06-29T09:51:31.961Z,21056
2017-06-29T09:52:47.380Z,20704
2017-06-29T09:54:02.019Z,20352
2017-06-29T09:55:17.426Z,19840
2017-06-29T09:56:33.098Z,18144
2017-06-29T09:57:47.243Z,17152
2017-06-29T09:59:01.611Z,16160
2017-06-29T10:00:17.104Z,16384
2017-06-29T10:01:32.531Z,17408
2017-06-29T10:02:48.028Z,17664
2017-06-29T10:04:03.781Z,17088
2017-06-29T10:05:19.207Z,16288
2017-06-29T10:06:34.681Z,18432
2017-06-29T10:07:50.091Z,22560
2017-06-29T10:09:04.771Z,25152
2017-06-29T10:10:18.901Z,25280
2017-06-29T10:11:34.365Z,23776
2017-06-29T10:12:49.787Z,20288
2017-06-29T10:14:05.556Z,21120
2017-06-29T10:15:20.987Z,24160
2017-06-29T10:16:36.443Z,26560
2017-06-29T10:17:51.921Z,27168
2017-06-29T10:19:07.636Z,28032
2017-06-29T10:20:23.089Z,27840
2017-06-29T10:21:38.567Z,24896
2017-06-29T10:23:06.428Z,26496
2017-06-29T10:24:22.135Z,26624
2017-06-29T10:25:37.658Z,27296
2017-06-29T10:26:53.143Z,27872
2017-06-29T10:28:08.764Z,30240
2017-06-29T10:29:24.479Z,30144
2017-06-29T10:30:37.307Z,29248
2017-06-29T10:31:52.724Z,29376
2017-06-29T10:33:08.151Z,28736
2017-06-29T10:34:23.850Z,27904
2017-06-29T10:35:38.966Z,26912
2017-06-29T10:36:54.341Z,26112
2017-06-29T10:38:09.826Z,25312
2017-06-29T10:39:25.504Z,24576
2017-06-29T10:40:39.471Z,23840
2017-06-29T10:41:54.903Z,23296
2017-06-29T10:43:10.379Z,23264
2017-06-29T10:44:26.073Z,23104
2017-06-29T10:45:41.508Z,22976
2017-06-29T10:46:56.627Z,23040
2017-06-29T10:48:12.097Z,23200
2017-06-29T10:49:27.781Z,23328
2017-06-29T10:50:41.897Z,23744
2017-06-29T10:51:56.133Z,23296
2017-06-29T10:53:11.646Z,22432
2017-06-29T10:54:27.357Z,21600
2017-06-29T10:55:42.786Z,20960
2017-06-29T10:56:58.195Z,20512
2017-06-29T10:58:12.353Z,20000
2017-06-29T10:59:27.987Z,19680
2017-06-29T11:00:43.611Z,19424
2017-06-29T11:01:59.058Z,19296
2017-06-29T11:03:13.187Z,19456
2017-06-29T11:04:28.899Z,19904
2017-06-29T11:05:44.348Z,20480
2017-06-29T11:06:59.475Z,21184
2017-06-29T11:08:13.623Z,21696
2017-06-29T11:09:29.354Z,22336
2017-06-29T11:10:44.616Z,23072
2017-06-29T11:12:00.099Z,23328
2017-06-29T11:13:14.215Z,23808
2017-06-29T11:14:28.479Z,24896
2017-06-29T11:15:42.634Z,26784
2017-06-29T11:17:11.562Z,28928
2017-06-29T11:18:27.053Z,28896
2017-06-29T11:19:42.754Z,27968
2017-06-29T11:20:58.214Z,24960
2017-06-29T11:22:13.735Z,24448
2017-06-29T11:23:29.202Z,24416
2017-06-29T11:24:44.916Z,24768
2017-06-29T11:26:00.333Z,25952
2017-06-29T11:27:15.477Z,28448
2017-06-29T11:28:31.014Z,29728
2017-06-29T11:29:46.720Z,28928
2017-06-29T11:31:02.116Z,26720
2017-06-29T11:32:17.653Z,25280
2017-06-29T11:33:33.088Z,24384
2017-06-29T11:34:48.711Z,23840
2017-06-29T11:36:04.147Z,23552
2017-06-29T11:37:19.574Z,23808
2017-06-29T11:38:35.063Z,24576
2017-06-29T11:39:50.738Z,25664
2017-06-29T11:41:03.464Z,28064
2017-06-29T11:42:19.024Z,26400
2017-06-29T11:43:34.535Z,24320
2017-06-29T11:44:50.232Z,24832
2017-06-29T11:46:04.229Z,23968
2017-06-29T11:47:18.430Z,23424
2017-06-29T11:48:34.144Z,22304
2017-06-29T11:49:49.964Z,21856
2017-06-29T11:51:05.384Z,21408
2017-06-29T11:52:20.795Z,21024
2017-06-29T11:53:36.430Z,21280
2017-06-29T11:54:52.075Z,20768
2017-06-29T11:56:07.475Z,20096
2017-06-29T11:57:53.592Z,19200
2017-06-29T11:59:09.048Z,19008
2017-06-29T12:00:24.785Z,19200
2017-06-29T12:01:39.158Z,19808
2017-06-29T12:02:54.757Z,21184
2017-06-29T12:04:10.357Z,22976
2017-06-29T12:05:26.137Z,23456
2017-06-29T12:06:41.550Z,23040
2017-06-29T12:07:56.947Z,22912
2017-06-29T12:09:12.410Z,23040
2017-06-29T12:10:28.133Z,23808
2017-06-29T12:11:43.576Z,24192
2017-06-29T12:12:59.040Z,25056
2017-06-29T12:14:14.472Z,25600
2017-06-29T12:15:30.167Z,25568
2017-06-29T12:16:45.856Z,28064
2017-06-29T12:18:01.312Z,28640
2017-06-29T12:19:16.850Z,29472
2017-06-29T12:20:32.146Z,29056
2017-06-29T12:21:46.178Z,27808
2017-06-29T12:23:01.660Z,24992
2017-06-29T12:24:17.146Z,23808
2017-06-29T12:25:30.283Z,24544
2017-06-29T12:26:45.871Z,21664
2017-06-29T12:28:01.366Z,18944
2017-06-29T12:29:16.799Z,16992
2017-06-29T12:30:32.563Z,16576
2017-06-29T12:31:47.984Z,15552
2017-06-29T12:33:03.420Z,14652
2017-06-29T12:34:18.912Z,14140
2017-06-29T12:35:34.844Z,13712
2017-06-29T12:36:48.983Z,13536
2017-06-29T12:38:04.078Z,13304
2017-06-29T12:39:19.408Z,13040
2017-06-29T12:40:35.148Z,12708
2017-06-29T12:41:50.554Z,12404
2017-06-29T12:43:06.249Z,12072
2017-06-29T12:44:21.681Z,11624
2017-06-29T12:45:37.371Z,10964
2017-06-29T12:46:52.870Z,10564
2017-06-29T12:48:08.525Z,9968
2017-06-29T12:49:23.635Z,9428
2017-06-29T12:50:39.371Z,8888
2017-06-29T12:51:54.854Z,8376
2017-06-29T12:53:10.332Z,7864
2017-06-29T12:54:25.816Z,7388
2017-06-29T12:55:41.493Z,6980
2017-06-29T12:56:56.661Z,6748
2017-06-29T12:58:09.488Z,6564
2017-06-29T12:59:55.780Z,6296
2017-06-29T13:01:11.421Z,6120
2017-06-29T13:02:57.832Z,5864
2017-06-29T13:04:13.288Z,5676
2017-06-29T13:05:28.746Z,5500
2017-06-29T13:06:44.494Z,5380
2017-06-29T13:08:00.094Z,5312
2017-06-29T13:09:15.548Z,5272
2017-06-29T13:10:30.676Z,5228
2017-06-29T13:11:45.030Z,5192
2017-06-29T13:13:00.474Z,5164
2017-06-29T13:14:15.938Z,5156
2017-06-29T13:15:31.642Z,5140
2017-06-29T13:16:47.384Z,5152
2017-06-29T13:18:02.822Z,5216
2017-06-29T13:19:18.298Z,5288
2017-06-29T13:20:33.764Z,5332
2017-06-29T13:21:49.530Z,5360
2017-06-29T13:23:04.980Z,5424
2017-06-29T13:24:20.409Z,5536
2017-06-29T13:25:34.538Z,5676
2017-06-29T13:26:50.218Z,5796
2017-06-29T13:28:05.715Z,5896
2017-06-29T13:29:21.215Z,5968
2017-06-29T13:30:36.669Z,5976
2017-06-29T13:31:52.394Z,5912
2017-06-29T13:33:08.032Z,5872
2017-06-29T13:34:23.442Z,5828
2017-06-29T13:35:37.565Z,5740
2017-06-29T13:36:53.405Z,5632
2017-06-29T13:38:09.054Z,5520
2017-06-29T13:39:24.732Z,5408
2017-06-29T13:40:40.228Z,5304
2017-06-29T13:41:55.908Z,5216
2017-06-29T13:43:11.461Z,5140
2017-06-29T13:44:26.953Z,5080
2017-06-29T13:45:42.429Z,5044
2017-06-29T13:46:58.215Z,5004
2017-06-29T13:48:12.341Z,4980
2017-06-29T13:49:27.817Z,4956
2017-06-29T13:50:43.304Z,4928
2017-06-29T13:51:59.060Z,4908
2017-06-29T13:53:14.705Z,4908
2017-06-29T13:54:30.189Z,4912
2017-06-29T13:55:45.633Z,4912
2017-06-29T13:57:01.305Z,4900
2017-06-29T13:58:16.769Z,4888
2017-06-29T13:59:32.244Z,4900
2017-06-29T14:00:47.841Z,4908
2017-06-29T14:02:02.303Z,4924
2017-06-29T14:03:17.788Z,4976
2017-06-29T14:04:33.288Z,5048
2017-06-29T14:05:48.711Z,5076
2017-06-29T14:07:04.418Z,5100
2017-06-29T14:08:19.888Z,5144
2017-06-29T14:09:35.291Z,5200
2017-06-29T14:10:51.011Z,5292
2017-06-29T14:12:06.673Z,5404
2017-06-29T14:13:20.796Z,5536
2017-06-29T14:14:34.978Z,5696
2017-06-29T14:15:50.067Z,5860
2017-06-29T14:17:05.795Z,5988
2017-06-29T14:18:19.968Z,6076
2017-06-29T14:19:35.460Z,6132
2017-06-29T14:20:50.930Z,6132
2017-06-29T14:22:06.712Z,6100
2017-06-29T14:23:22.154Z,6044
2017-06-29T14:24:37.611Z,5948
2017-06-29T14:25:51.752Z,5844
2017-06-29T14:27:07.516Z,5740
2017-06-29T14:28:22.980Z,5640
2017-06-29T14:29:38.435Z,5544
2017-06-29T14:30:53.909Z,5476
2017-06-29T14:32:09.595Z,5436
2017-06-29T14:33:25.065Z,5428
2017-06-29T14:34:39.290Z,5416
2017-06-29T14:35:54.879Z,5400
2017-06-29T14:37:10.227Z,5396
2017-06-29T14:38:25.939Z,5412
2017-06-29T14:39:41.421Z,5444
2017-06-29T14:40:55.724Z,5508
2017-06-29T14:42:11.390Z,5560
2017-06-29T14:43:26.814Z,5620
2017-06-29T14:44:42.297Z,5724
2017-06-29T14:45:57.785Z,5848
2017-06-29T14:47:13.671Z,5976
2017-06-29T14:48:29.247Z,6100
2017-06-29T14:49:44.750Z,6204
2017-06-29T14:51:00.225Z,6336
2017-06-29T14:52:14.701Z,6432
2017-06-29T14:53:30.092Z,6492
2017-06-29T14:54:45.602Z,6536
2017-06-29T14:56:01.044Z,6532
2017-06-29T14:57:15.504Z,6516
2017-06-29T14:58:30.975Z,6504
2017-06-29T14:59:46.406Z,6468
2017-06-29T15:01:00.556Z,6416
2017-06-29T15:02:16.293Z,6356
2017-06-29T15:03:31.734Z,6288
2017-06-29T15:04:47.180Z,6236
2017-06-29T15:06:02.677Z,6200
2017-06-29T15:07:18.434Z,6208
2017-06-29T15:08:33.907Z,6252
2017-06-29T15:09:49.335Z,6308
2017-06-29T15:11:04.832Z,6400
2017-06-29T15:12:20.562Z,6520
2017-06-29T15:13:35.986Z,6672
2017-06-29T15:14:51.661Z,6860
2017-06-29T15:16:07.195Z,7064
2017-06-29T15:17:23.105Z,7236
2017-06-29T15:18:35.911Z,7452
2017-06-29T15:19:51.625Z,7708
2017-06-29T15:21:20.681Z,7692
2017-06-29T15:22:36.413Z,6720
2017-06-29T15:23:51.893Z,5172
2017-06-29T15:25:06.020Z,3780
2017-06-29T15:26:21.658Z,4348
2017-06-29T15:27:37.389Z,5672
2017-06-29T15:28:52.878Z,7300
2017-06-29T15:30:08.523Z,7320
2017-06-29T15:31:23.651Z,7680
2017-06-29T15:32:39.385Z,7840
2017-06-29T15:33:54.890Z,7768
2017-06-29T15:35:10.500Z,7676
2017-06-29T15:36:25.937Z,7656
2017-06-29T15:37:40.311Z,7680
2017-06-29T15:38:55.901Z,7736
2017-06-29T15:40:08.728Z,7820
2017-06-29T15:41:24.206Z,7848
2017-06-29T15:42:39.907Z,7840
2017-06-29T15:43:55.374Z,7848
2017-06-29T15:45:10.586Z,7880
2017-06-29T15:46:26.046Z,7848
2017-06-29T15:47:41.787Z,7700
2017-06-29T15:48:57.407Z,7704
2017-06-29T15:50:13.096Z,7144
2017-06-29T15:51:27.207Z,7904
2017-06-29T15:52:43.010Z,8012
2017-06-29T15:53:58.495Z,7960
2017-06-29T15:55:14.213Z,7832
2017-06-29T15:56:29.657Z,7860
2017-06-29T15:57:45.492Z,8048
2017-06-29T15:59:00.946Z,7900
2017-06-29T16:00:15.083Z,7520
2017-06-29T16:01:30.564Z,7092
2017-06-29T16:02:46.256Z,7212
2017-06-29T16:04:01.752Z,7288
2017-06-29T16:05:17.198Z,7180
2017-06-29T16:06:32.824Z,7024
2017-06-29T16:07:48.575Z,6968
2017-06-29T16:09:04.252Z,6940
2017-06-29T16:10:19.722Z,6880
2017-06-29T16:11:34.837Z,6836
2017-06-29T16:12:50.181Z,6764
2017-06-29T16:14:05.614Z,6676
2017-06-29T16:15:20.989Z,6564
2017-06-29T16:16:36.548Z,6468
2017-06-29T16:17:50.924Z,6388
2017-06-29T16:19:06.354Z,6320
2017-06-29T16:20:22.002Z,6236
2017-06-29T16:21:37.446Z,6144
2017-06-29T16:22:51.887Z,6052
2017-06-29T16:24:06.032Z,5964
2017-06-29T16:25:21.479Z,5860
2017-06-29T16:26:36.919Z,5756
2017-06-29T16:27:53.007Z,5632
2017-06-29T16:29:08.479Z,5476
2017-06-29T16:30:23.991Z,5304
2017-06-29T16:31:39.460Z,5148
2017-06-29T16:32:55.545Z,5024
2017-06-29T16:34:24.836Z,4956
2017-06-29T16:35:40.348Z,4928
2017-06-29T16:36:55.795Z,4904
2017-06-29T16:38:11.561Z,4872
2017-06-29T16:39:27.220Z,4824
2017-06-29T16:40:42.659Z,4692
2017-06-29T16:41:58.180Z,4536
2017-06-29T16:43:14.150Z,4404
2017-06-29T16:44:29.668Z,4256
2017-06-29T16:45:45.315Z,4064
2017-06-29T16:47:00.978Z,3760
2017-06-29T16:48:16.940Z,3484
2017-06-29T16:49:32.651Z,3264
2017-06-29T16:50:48.093Z,3092
2017-06-29T16:52:02.132Z,3072
2017-06-29T16:53:18.035Z,3180
2017-06-29T16:54:33.709Z,3156